sensor_id;sensor_type;location;lat;lon;timestamp;temperature;humidity
22153;DHT22;11242;50.536;12.688;2022-11-20T00:02:03;-8.80;99.90
22153;DHT22;11242;50.536;12.688;2022-11-20T00:04:29;-9.00;99.90
22153;DHT22;11242;50.536;12.688;2022-11-20T00:06:54;-8.90;99.90
22153;DHT22;11242;50.536;12.688;2022-11-20T00:09:20;-8.80;99.90
22153;DHT22;11242;50.536;12.688;2022-11-20T00:11:46;-8.80;99.90
22153;DHT22;11242;50.536;12.688;2022-11-20T00:14:11;-8.90;99.90
22153;DHT22;11242;50.536;12.688;2022-11-20T00:16:37;-9.00;99.90
22153;DHT22;11242;50.536;12.688;2022-11-20T00:19:02;-9.10;99.90
22153;DHT22;11242;50.536;12.688;2022-11-20T00:21:28;-9.10;99.90
22153;DHT22;11242;50.536;12.688;2022-11-20T00:23:55;-9.10;99.90
22153;DHT22;11242;50.536;12.688;2022-11-20T00:26:23;-9.20;99.90
22153;DHT22;11242;50.536;12.688;2022-11-20T00:28:51;-9.20;99.90
22153;DHT22;11242;50.536;12.688;2022-11-20T00:31:17;-9.20;99.90
22153;DHT22;11242;50.536;12.688;2022-11-20T00:33:43;-9.20;99.90
22153;DHT22;11242;50.536;12.688;2022-11-20T00:36:12;-9.20;99.90
22153;DHT22;11242;50.536;12.688;2022-11-20T00:38:38;-9.20;99.90
22153;DHT22;11242;50.536;12.688;2022-11-20T00:41:06;-9.30;99.90
22153;DHT22;11242;50.536;12.688;2022-11-20T00:43:33;-9.40;99.90
22153;DHT22;11242;50.536;12.688;2022-11-20T00:46:13;-9.50;99.90
22153;DHT22;11242;50.536;12.688;2022-11-20T00:48:39;-9.60;99.90
22153;DHT22;11242;50.536;12.688;2022-11-20T00:51:05;-9.50;99.90
22153;DHT22;11242;50.536;12.688;2022-11-20T00:53:31;-9.40;99.90
22153;DHT22;11242;50.536;12.688;2022-11-20T00:55:58;-9.40;99.90
22153;DHT22;11242;50.536;12.688;2022-11-20T00:58:29;-9.40;99.90
22153;DHT22;11242;50.536;12.688;2022-11-20T01:01:07;-9.40;99.90
22153;DHT22;11242;50.536;12.688;2022-11-20T01:03:38;-9.20;99.90
22153;DHT22;11242;50.536;12.688;2022-11-20T01:06:07;-9.20;99.90
22153;DHT22;11242;50.536;12.688;2022-11-20T01:08:34;-9.00;99.90
22153;DHT22;11242;50.536;12.688;2022-11-20T01:11:06;-9.00;99.90
22153;DHT22;11242;50.536;12.688;2022-11-20T01:13:32;-9.00;99.90
22153;DHT22;11242;50.536;12.688;2022-11-20T01:16:05;-9.00;99.90
22153;DHT22;11242;50.536;12.688;2022-11-20T01:18:31;-8.90;99.90
22153;DHT22;11242;50.536;12.688;2022-11-20T01:21:01;-8.90;99.90
22153;DHT22;11242;50.536;12.688;2022-11-20T01:23:31;-8.90;99.90
22153;DHT22;11242;50.536;12.688;2022-11-20T01:25:56;-8.80;99.90
22153;DHT22;11242;50.536;12.688;2022-11-20T01:28:22;-8.80;99.90
22153;DHT22;11242;50.536;12.688;2022-11-20T01:30:47;-8.80;99.90
22153;DHT22;11242;50.536;12.688;2022-11-20T01:33:13;-8.70;99.90
22153;DHT22;11242;50.536;12.688;2022-11-20T01:35:38;-8.70;99.90
22153;DHT22;11242;50.536;12.688;2022-11-20T01:38:04;-8.50;99.90
22153;DHT22;11242;50.536;12.688;2022-11-20T01:40:30;-8.40;99.90
22153;DHT22;11242;50.536;12.688;2022-11-20T01:43:09;-8.40;99.90
22153;DHT22;11242;50.536;12.688;2022-11-20T01:45:56;-8.50;99.90
22153;DHT22;11242;50.536;12.688;2022-11-20T01:48:26;-8.60;99.90
22153;DHT22;11242;50.536;12.688;2022-11-20T01:50:54;-8.80;99.90
22153;DHT22;11242;50.536;12.688;2022-11-20T01:53:24;-9.00;99.90
22153;DHT22;11242;50.536;12.688;2022-11-20T01:55:54;-9.10;99.90
22153;DHT22;11242;50.536;12.688;2022-11-20T01:58:26;-9.10;99.90
22153;DHT22;11242;50.536;12.688;2022-11-20T02:00:53;-9.20;99.90
22153;DHT22;11242;50.536;12.688;2022-11-20T02:03:19;-9.30;99.90
22153;DHT22;11242;50.536;12.688;2022-11-20T02:08:12;-9.40;99.90
22153;DHT22;11242;50.536;12.688;2022-11-20T02:10:38;-9.40;99.90
22153;DHT22;11242;50.536;12.688;2022-11-20T02:13:03;-9.50;99.90
22153;DHT22;11242;50.536;12.688;2022-11-20T02:15:48;-9.50;99.90
22153;DHT22;11242;50.536;12.688;2022-11-20T02:18:16;-9.60;99.90
22153;DHT22;11242;50.536;12.688;2022-11-20T02:20:44;-9.60;99.90
22153;DHT22;11242;50.536;12.688;2022-11-20T02:24:29;-9.60;99.90
22153;DHT22;11242;50.536;12.688;2022-11-20T02:26:24;-9.50;99.90
22153;DHT22;11242;50.536;12.688;2022-11-20T02:28:51;-9.40;99.90
22153;DHT22;11242;50.536;12.688;2022-11-20T02:31:17;-9.30;99.90
22153;DHT22;11242;50.536;12.688;2022-11-20T02:33:43;-9.20;99.90
22153;DHT22;11242;50.536;12.688;2022-11-20T02:36:11;-9.10;99.90
22153;DHT22;11242;50.536;12.688;2022-11-20T02:38:39;-9.00;99.90
22153;DHT22;11242;50.536;12.688;2022-11-20T02:41:05;-8.80;99.90
22153;DHT22;11242;50.536;12.688;2022-11-20T02:43:31;-8.70;99.90
22153;DHT22;11242;50.536;12.688;2022-11-20T02:45:56;-8.70;99.90
22153;DHT22;11242;50.536;12.688;2022-11-20T02:48:22;-8.70;99.90
22153;DHT22;11242;50.536;12.688;2022-11-20T02:50:47;-8.80;99.90
22153;DHT22;11242;50.536;12.688;2022-11-20T02:53:13;-8.90;99.90
22153;DHT22;11242;50.536;12.688;2022-11-20T02:55:38;-9.10;99.90
22153;DHT22;11242;50.536;12.688;2022-11-20T02:58:04;-9.10;99.90
22153;DHT22;11242;50.536;12.688;2022-11-20T03:00:30;-9.20;99.90
22153;DHT22;11242;50.536;12.688;2022-11-20T03:02:56;-9.30;99.90
22153;DHT22;11242;50.536;12.688;2022-11-20T03:05:21;-9.30;99.90
22153;DHT22;11242;50.536;12.688;2022-11-20T03:07:47;-9.50;99.90
22153;DHT22;11242;50.536;12.688;2022-11-20T03:10:12;-9.50;99.90
22153;DHT22;11242;50.536;12.688;2022-11-20T03:12:38;-9.50;99.90
22153;DHT22;11242;50.536;12.688;2022-11-20T03:15:04;-9.40;99.90
22153;DHT22;11242;50.536;12.688;2022-11-20T03:17:30;-9.60;99.90
22153;DHT22;11242;50.536;12.688;2022-11-20T03:19:56;-9.60;99.90
22153;DHT22;11242;50.536;12.688;2022-11-20T03:22:21;-9.60;99.90
22153;DHT22;11242;50.536;12.688;2022-11-20T03:24:47;-9.60;99.90
22153;DHT22;11242;50.536;12.688;2022-11-20T03:27:13;-9.60;99.90
22153;DHT22;11242;50.536;12.688;2022-11-20T03:29:38;-9.60;99.90
22153;DHT22;11242;50.536;12.688;2022-11-20T03:32:04;-9.70;99.90
22153;DHT22;11242;50.536;12.688;2022-11-20T03:34:30;-9.70;99.90
22153;DHT22;11242;50.536;12.688;2022-11-20T03:36:55;-9.70;99.90
22153;DHT22;11242;50.536;12.688;2022-11-20T03:39:21;-9.60;99.90
22153;DHT22;11242;50.536;12.688;2022-11-20T03:41:46;-9.60;99.90
22153;DHT22;11242;50.536;12.688;2022-11-20T03:44:12;-9.70;99.90
22153;DHT22;11242;50.536;12.688;2022-11-20T03:46:38;-9.60;99.90
22153;DHT22;11242;50.536;12.688;2022-11-20T03:49:04;-9.70;99.90
22153;DHT22;11242;50.536;12.688;2022-11-20T03:51:32;-9.60;99.90
22153;DHT22;11242;50.536;12.688;2022-11-20T03:54:00;-9.50;99.90
22153;DHT22;11242;50.536;12.688;2022-11-20T03:56:29;-9.60;99.90
22153;DHT22;11242;50.536;12.688;2022-11-20T03:58:55;-9.60;99.90
22153;DHT22;11242;50.536;12.688;2022-11-20T04:01:26;-9.80;99.90
22153;DHT22;11242;50.536;12.688;2022-11-20T04:03:54;-9.90;99.90
22153;DHT22;11242;50.536;12.688;2022-11-20T04:06:25;-10.00;99.90
22153;DHT22;11242;50.536;12.688;2022-11-20T04:08:51;-9.90;99.90
22153;DHT22;11242;50.536;12.688;2022-11-20T04:11:22;-9.80;99.90
22153;DHT22;11242;50.536;12.688;2022-11-20T04:13:53;-9.90;99.90
22153;DHT22;11242;50.536;12.688;2022-11-20T04:16:20;-10.00;99.90
22153;DHT22;11242;50.536;12.688;2022-11-20T04:18:46;-9.90;99.90
22153;DHT22;11242;50.536;12.688;2022-11-20T04:21:12;-10.00;99.90
22153;DHT22;11242;50.536;12.688;2022-11-20T04:23:38;-10.10;99.90
22153;DHT22;11242;50.536;12.688;2022-11-20T04:26:09;-10.10;99.90
22153;DHT22;11242;50.536;12.688;2022-11-20T04:28:35;-10.10;99.90
22153;DHT22;11242;50.536;12.688;2022-11-20T04:33:29;-10.10;99.90
22153;DHT22;11242;50.536;12.688;2022-11-20T04:35:55;-10.00;99.90
22153;DHT22;11242;50.536;12.688;2022-11-20T04:38:24;-10.10;99.90
22153;DHT22;11242;50.536;12.688;2022-11-20T04:40:50;-10.10;99.90
22153;DHT22;11242;50.536;12.688;2022-11-20T04:43:16;-9.90;99.90
22153;DHT22;11242;50.536;12.688;2022-11-20T04:45:41;-9.90;99.90
22153;DHT22;11242;50.536;12.688;2022-11-20T04:48:07;-9.80;99.90
22153;DHT22;11242;50.536;12.688;2022-11-20T04:50:32;-9.80;99.90
22153;DHT22;11242;50.536;12.688;2022-11-20T04:52:58;-9.70;99.90
22153;DHT22;11242;50.536;12.688;2022-11-20T04:55:24;-9.70;99.90
22153;DHT22;11242;50.536;12.688;2022-11-20T04:57:50;-9.70;99.90
22153;DHT22;11242;50.536;12.688;2022-11-20T05:00:16;-9.70;99.90
22153;DHT22;11242;50.536;12.688;2022-11-20T05:02:42;-9.70;99.90
22153;DHT22;11242;50.536;12.688;2022-11-20T05:05:08;-9.80;99.90
22153;DHT22;11242;50.536;12.688;2022-11-20T05:07:33;-9.80;99.90
22153;DHT22;11242;50.536;12.688;2022-11-20T05:09:59;-9.90;99.90
22153;DHT22;11242;50.536;12.688;2022-11-20T05:12:24;-10.00;99.90
22153;DHT22;11242;50.536;12.688;2022-11-20T05:14:50;-10.00;99.90
22153;DHT22;11242;50.536;12.688;2022-11-20T05:17:16;-10.00;99.90
22153;DHT22;11242;50.536;12.688;2022-11-20T05:19:41;-10.10;99.90
22153;DHT22;11242;50.536;12.688;2022-11-20T05:22:07;-10.00;99.90
22153;DHT22;11242;50.536;12.688;2022-11-20T05:24:32;-10.00;99.90
22153;DHT22;11242;50.536;12.688;2022-11-20T05:26:58;-10.10;99.90
22153;DHT22;11242;50.536;12.688;2022-11-20T05:29:23;-10.10;99.90
22153;DHT22;11242;50.536;12.688;2022-11-20T05:31:49;-10.00;99.90
22153;DHT22;11242;50.536;12.688;2022-11-20T05:34:15;-10.10;99.90
22153;DHT22;11242;50.536;12.688;2022-11-20T05:36:40;-10.10;99.90
22153;DHT22;11242;50.536;12.688;2022-11-20T05:39:06;-10.20;99.90
22153;DHT22;11242;50.536;12.688;2022-11-20T05:41:33;-10.10;99.90
22153;DHT22;11242;50.536;12.688;2022-11-20T05:43:58;-10.10;99.90
22153;DHT22;11242;50.536;12.688;2022-11-20T05:46:24;-10.00;99.90
22153;DHT22;11242;50.536;12.688;2022-11-20T05:48:49;-10.00;99.90
22153;DHT22;11242;50.536;12.688;2022-11-20T05:51:17;-10.00;99.90
22153;DHT22;11242;50.536;12.688;2022-11-20T05:53:43;-10.10;99.90
22153;DHT22;11242;50.536;12.688;2022-11-20T05:56:11;-10.10;99.90
22153;DHT22;11242;50.536;12.688;2022-11-20T05:58:37;-10.20;99.90
22153;DHT22;11242;50.536;12.688;2022-11-20T06:03:36;-10.20;99.90
22153;DHT22;11242;50.536;12.688;2022-11-20T06:06:03;-10.20;99.90
22153;DHT22;11242;50.536;12.688;2022-11-20T06:08:29;-10.10;99.90
22153;DHT22;11242;50.536;12.688;2022-11-20T06:10:55;-10.10;99.90
22153;DHT22;11242;50.536;12.688;2022-11-20T06:13:21;-10.20;99.90
22153;DHT22;11242;50.536;12.688;2022-11-20T06:15:51;-10.20;99.90
22153;DHT22;11242;50.536;12.688;2022-11-20T06:18:18;-10.10;99.90
22153;DHT22;11242;50.536;12.688;2022-11-20T06:20:44;-10.00;99.90
22153;DHT22;11242;50.536;12.688;2022-11-20T06:23:10;-9.90;99.90
22153;DHT22;11242;50.536;12.688;2022-11-20T06:25:40;-9.80;99.90
22153;DHT22;11242;50.536;12.688;2022-11-20T06:28:06;-9.80;99.90
22153;DHT22;11242;50.536;12.688;2022-11-20T06:30:32;-9.80;99.90
22153;DHT22;11242;50.536;12.688;2022-11-20T06:32:57;-9.70;99.90
22153;DHT22;11242;50.536;12.688;2022-11-20T06:35:23;-9.70;99.90
22153;DHT22;11242;50.536;12.688;2022-11-20T06:37:49;-9.60;99.90
22153;DHT22;11242;50.536;12.688;2022-11-20T06:40:14;-9.60;99.90
22153;DHT22;11242;50.536;12.688;2022-11-20T06:42:40;-9.40;99.90
22153;DHT22;11242;50.536;12.688;2022-11-20T06:45:06;-9.10;99.90
22153;DHT22;11242;50.536;12.688;2022-11-20T06:47:31;-8.80;99.90
22153;DHT22;11242;50.536;12.688;2022-11-20T06:49:57;-8.50;99.90
22153;DHT22;11242;50.536;12.688;2022-11-20T06:52:23;-8.40;99.90
22153;DHT22;11242;50.536;12.688;2022-11-20T06:54:48;-8.20;99.90
22153;DHT22;11242;50.536;12.688;2022-11-20T06:57:14;-8.10;99.90
22153;DHT22;11242;50.536;12.688;2022-11-20T06:59:39;-8.10;99.90
22153;DHT22;11242;50.536;12.688;2022-11-20T07:02:05;-8.00;99.90
22153;DHT22;11242;50.536;12.688;2022-11-20T07:04:30;-7.90;99.90
22153;DHT22;11242;50.536;12.688;2022-11-20T07:06:56;-7.70;99.90
22153;DHT22;11242;50.536;12.688;2022-11-20T07:09:22;-7.50;99.90
22153;DHT22;11242;50.536;12.688;2022-11-20T07:11:47;-7.40;99.90
22153;DHT22;11242;50.536;12.688;2022-11-20T07:14:13;-7.20;99.90
22153;DHT22;11242;50.536;12.688;2022-11-20T07:16:38;-7.20;99.90
22153;DHT22;11242;50.536;12.688;2022-11-20T07:19:04;-7.10;99.90
22153;DHT22;11242;50.536;12.688;2022-11-20T07:21:29;-7.00;99.90
22153;DHT22;11242;50.536;12.688;2022-11-20T07:23:55;-6.90;99.90
22153;DHT22;11242;50.536;12.688;2022-11-20T07:26:21;-6.80;99.90
22153;DHT22;11242;50.536;12.688;2022-11-20T07:28:46;-6.60;99.90
22153;DHT22;11242;50.536;12.688;2022-11-20T07:31:12;-6.40;99.90
22153;DHT22;11242;50.536;12.688;2022-11-20T07:33:38;-6.30;99.90
22153;DHT22;11242;50.536;12.688;2022-11-20T07:36:04;-6.20;99.90
22153;DHT22;11242;50.536;12.688;2022-11-20T07:38:30;-6.00;99.90
22153;DHT22;11242;50.536;12.688;2022-11-20T07:40:56;-5.80;99.90
22153;DHT22;11242;50.536;12.688;2022-11-20T07:43:23;-5.80;99.90
22153;DHT22;11242;50.536;12.688;2022-11-20T07:45:49;-5.70;99.90
22153;DHT22;11242;50.536;12.688;2022-11-20T07:48:15;-5.50;99.90
22153;DHT22;11242;50.536;12.688;2022-11-20T07:50:40;-5.30;99.90
22153;DHT22;11242;50.536;12.688;2022-11-20T07:53:06;-5.20;99.90
22153;DHT22;11242;50.536;12.688;2022-11-20T07:55:32;-4.90;99.90
22153;DHT22;11242;50.536;12.688;2022-11-20T07:57:58;-4.50;99.90
22153;DHT22;11242;50.536;12.688;2022-11-20T08:00:24;-4.20;99.90
22153;DHT22;11242;50.536;12.688;2022-11-20T08:02:50;-3.90;99.90
22153;DHT22;11242;50.536;12.688;2022-11-20T08:05:16;-3.80;99.90
22153;DHT22;11242;50.536;12.688;2022-11-20T08:07:43;-3.80;99.90
22153;DHT22;11242;50.536;12.688;2022-11-20T08:10:11;-4.00;99.90
22153;DHT22;11242;50.536;12.688;2022-11-20T08:15:30;-4.10;99.90
22153;DHT22;11242;50.536;12.688;2022-11-20T08:18:03;-4.00;99.90
22153;DHT22;11242;50.536;12.688;2022-11-20T08:20:29;-4.20;99.90
22153;DHT22;11242;50.536;12.688;2022-11-20T08:22:59;-4.20;99.90
22153;DHT22;11242;50.536;12.688;2022-11-20T08:25:25;-4.20;99.90
22153;DHT22;11242;50.536;12.688;2022-11-20T08:27:51;-4.00;99.90
22153;DHT22;11242;50.536;12.688;2022-11-20T08:30:17;-3.80;99.90
22153;DHT22;11242;50.536;12.688;2022-11-20T08:32:43;-3.60;99.90
22153;DHT22;11242;50.536;12.688;2022-11-20T08:35:08;-3.50;99.90
22153;DHT22;11242;50.536;12.688;2022-11-20T08:37:34;-3.20;99.90
22153;DHT22;11242;50.536;12.688;2022-11-20T08:40:00;-3.00;99.90
22153;DHT22;11242;50.536;12.688;2022-11-20T08:42:25;-2.80;99.90
22153;DHT22;11242;50.536;12.688;2022-11-20T08:44:51;-2.50;99.90
22153;DHT22;11242;50.536;12.688;2022-11-20T08:47:16;-2.30;99.90
22153;DHT22;11242;50.536;12.688;2022-11-20T08:49:42;-2.00;99.90
22153;DHT22;11242;50.536;12.688;2022-11-20T08:52:07;-1.80;99.90
22153;DHT22;11242;50.536;12.688;2022-11-20T08:54:33;-1.50;99.90
22153;DHT22;11242;50.536;12.688;2022-11-20T08:56:59;-1.50;99.90
22153;DHT22;11242;50.536;12.688;2022-11-20T08:59:24;-1.40;99.90
22153;DHT22;11242;50.536;12.688;2022-11-20T09:01:50;-1.10;99.90
22153;DHT22;11242;50.536;12.688;2022-11-20T09:04:15;-0.80;99.90
22153;DHT22;11242;50.536;12.688;2022-11-20T09:06:41;-0.60;99.90
22153;DHT22;11242;50.536;12.688;2022-11-20T09:09:07;-0.60;99.90
22153;DHT22;11242;50.536;12.688;2022-11-20T09:11:34;-0.70;99.90
22153;DHT22;11242;50.536;12.688;2022-11-20T09:13:59;-0.70;99.90
22153;DHT22;11242;50.536;12.688;2022-11-20T09:16:25;-0.80;99.90
22153;DHT22;11242;50.536;12.688;2022-11-20T09:18:51;-0.80;99.90
22153;DHT22;11242;50.536;12.688;2022-11-20T09:21:16;-0.90;99.90
22153;DHT22;11242;50.536;12.688;2022-11-20T09:23:42;-1.10;99.90
22153;DHT22;11242;50.536;12.688;2022-11-20T09:26:12;-1.20;99.90
22153;DHT22;11242;50.536;12.688;2022-11-20T09:28:38;-1.30;99.90
22153;DHT22;11242;50.536;12.688;2022-11-20T09:31:06;-1.30;99.90
22153;DHT22;11242;50.536;12.688;2022-11-20T09:33:31;-1.30;99.90
22153;DHT22;11242;50.536;12.688;2022-11-20T09:35:57;-1.30;99.90
22153;DHT22;11242;50.536;12.688;2022-11-20T09:38:23;-1.20;99.90
22153;DHT22;11242;50.536;12.688;2022-11-20T09:41:04;-1.00;99.90
22153;DHT22;11242;50.536;12.688;2022-11-20T09:47:11;-0.40;99.90
22153;DHT22;11242;50.536;12.688;2022-11-20T09:50:18;-0.10;99.90
22153;DHT22;11242;50.536;12.688;2022-11-20T09:53:04;0.20;99.90
22153;DHT22;11242;50.536;12.688;2022-11-20T09:55:35;0.60;99.90
22153;DHT22;11242;50.536;12.688;2022-11-20T09:58:02;0.80;99.90
22153;DHT22;11242;50.536;12.688;2022-11-20T10:00:31;0.90;99.90
22153;DHT22;11242;50.536;12.688;2022-11-20T10:03:03;0.80;99.90
22153;DHT22;11242;50.536;12.688;2022-11-20T10:05:52;0.80;99.90
22153;DHT22;11242;50.536;12.688;2022-11-20T10:08:28;0.80;99.90
22153;DHT22;11242;50.536;12.688;2022-11-20T10:14:00;1.10;99.90
22153;DHT22;11242;50.536;12.688;2022-11-20T10:16:41;1.20;99.90
22153;DHT22;11242;50.536;12.688;2022-11-20T10:29:33;1.30;99.90
22153;DHT22;11242;50.536;12.688;2022-11-20T10:32:07;1.20;99.90
22153;DHT22;11242;50.536;12.688;2022-11-20T10:34:44;1.30;99.90
22153;DHT22;11242;50.536;12.688;2022-11-20T10:37:22;1.30;99.90
22153;DHT22;11242;50.536;12.688;2022-11-20T10:42:57;1.00;99.90
22153;DHT22;11242;50.536;12.688;2022-11-20T10:47:51;1.00;99.90
22153;DHT22;11242;50.536;12.688;2022-11-20T10:50:20;1.00;99.90
22153;DHT22;11242;50.536;12.688;2022-11-20T10:52:59;1.20;99.90
22153;DHT22;11242;50.536;12.688;2022-11-20T10:55:42;1.30;99.90
22153;DHT22;11242;50.536;12.688;2022-11-20T11:00:47;1.30;99.90
22153;DHT22;11242;50.536;12.688;2022-11-20T11:03:29;1.40;99.90
22153;DHT22;11242;50.536;12.688;2022-11-20T11:06:07;1.60;99.90
22153;DHT22;11242;50.536;12.688;2022-11-20T11:08:37;1.60;99.90
22153;DHT22;11242;50.536;12.688;2022-11-20T11:13:47;1.80;99.90
22153;DHT22;11242;50.536;12.688;2022-11-20T11:16:22;1.90;99.90
22153;DHT22;11242;50.536;12.688;2022-11-20T11:18:48;1.80;99.90
22153;DHT22;11242;50.536;12.688;2022-11-20T11:21:23;2.00;99.90
22153;DHT22;11242;50.536;12.688;2022-11-20T11:23:58;2.20;99.90
22153;DHT22;11242;50.536;12.688;2022-11-20T11:26:24;2.20;99.90
22153;DHT22;11242;50.536;12.688;2022-11-20T11:29:01;2.30;99.90
22153;DHT22;11242;50.536;12.688;2022-11-20T11:31:33;2.30;99.90
22153;DHT22;11242;50.536;12.688;2022-11-20T11:34:06;2.10;99.90
22153;DHT22;11242;50.536;12.688;2022-11-20T11:36:34;1.90;99.90
22153;DHT22;11242;50.536;12.688;2022-11-20T11:39:00;1.80;99.90
22153;DHT22;11242;50.536;12.688;2022-11-20T11:41:30;1.70;99.90
22153;DHT22;11242;50.536;12.688;2022-11-20T11:44:01;1.70;99.90
22153;DHT22;11242;50.536;12.688;2022-11-20T11:46:54;1.70;99.90
22153;DHT22;11242;50.536;12.688;2022-11-20T11:49:20;1.50;99.90
22153;DHT22;11242;50.536;12.688;2022-11-20T12:11:11;1.20;99.90
22153;DHT22;11242;50.536;12.688;2022-11-20T12:16:01;1.10;99.90
22153;DHT22;11242;50.536;12.688;2022-11-20T12:18:28;1.00;99.90
22153;DHT22;11242;50.536;12.688;2022-11-20T12:21:25;1.00;99.90
22153;DHT22;11242;50.536;12.688;2022-11-20T12:27:15;0.90;99.90
22153;DHT22;11242;50.536;12.688;2022-11-20T12:32:53;1.00;99.90
22153;DHT22;11242;50.536;12.688;2022-11-20T12:35:42;1.00;99.90
22153;DHT22;11242;50.536;12.688;2022-11-20T12:38:33;1.00;99.90
22153;DHT22;11242;50.536;12.688;2022-11-20T12:49:54;1.00;99.90
22153;DHT22;11242;50.536;12.688;2022-11-20T12:57:55;1.30;99.90
22153;DHT22;11242;50.536;12.688;2022-11-20T13:00:24;1.30;99.90
22153;DHT22;11242;50.536;12.688;2022-11-20T13:08:27;1.20;99.90
22153;DHT22;11242;50.536;12.688;2022-11-20T13:11:12;1.30;99.90
22153;DHT22;11242;50.536;12.688;2022-11-20T13:13:44;1.30;99.90
22153;DHT22;11242;50.536;12.688;2022-11-20T13:19:04;1.50;99.90
22153;DHT22;11242;50.536;12.688;2022-11-20T13:21:42;1.60;99.90
22153;DHT22;11242;50.536;12.688;2022-11-20T13:26:46;1.60;99.90
22153;DHT22;11242;50.536;12.688;2022-11-20T13:29:17;1.50;99.90
22153;DHT22;11242;50.536;12.688;2022-11-20T13:31:45;1.60;99.90
22153;DHT22;11242;50.536;12.688;2022-11-20T13:34:23;1.60;99.90
22153;DHT22;11242;50.536;12.688;2022-11-20T13:36:57;1.60;99.90
22153;DHT22;11242;50.536;12.688;2022-11-20T13:39:32;1.60;99.90
22153;DHT22;11242;50.536;12.688;2022-11-20T13:42:18;1.60;99.90
22153;DHT22;11242;50.536;12.688;2022-11-20T13:44:54;1.60;99.90
22153;DHT22;11242;50.536;12.688;2022-11-20T13:47:23;1.50;99.90
22153;DHT22;11242;50.536;12.688;2022-11-20T13:49:49;1.40;99.90
22153;DHT22;11242;50.536;12.688;2022-11-20T13:55:21;1.30;99.90
22153;DHT22;11242;50.536;12.688;2022-11-20T14:01:05;1.10;99.90
22153;DHT22;11242;50.536;12.688;2022-11-20T14:03:33;1.10;99.90
22153;DHT22;11242;50.536;12.688;2022-11-20T14:06:03;1.00;99.90
22153;DHT22;11242;50.536;12.688;2022-11-20T14:08:42;0.90;99.90
22153;DHT22;11242;50.536;12.688;2022-11-20T14:11:21;0.90;99.90
22153;DHT22;11242;50.536;12.688;2022-11-20T14:14:03;0.90;99.90
22153;DHT22;11242;50.536;12.688;2022-11-20T14:16:32;0.80;99.90
22153;DHT22;11242;50.536;12.688;2022-11-20T14:19:16;0.80;99.90
22153;DHT22;11242;50.536;12.688;2022-11-20T14:21:44;0.90;99.90
22153;DHT22;11242;50.536;12.688;2022-11-20T14:24:11;0.90;99.90
22153;DHT22;11242;50.536;12.688;2022-11-20T14:26:41;0.80;99.90
22153;DHT22;11242;50.536;12.688;2022-11-20T14:29:13;0.80;99.90
22153;DHT22;11242;50.536;12.688;2022-11-20T14:31:39;0.80;99.90
22153;DHT22;11242;50.536;12.688;2022-11-20T14:34:05;0.80;99.90
22153;DHT22;11242;50.536;12.688;2022-11-20T14:36:37;0.80;99.90
22153;DHT22;11242;50.536;12.688;2022-11-20T14:39:03;0.70;99.90
22153;DHT22;11242;50.536;12.688;2022-11-20T14:41:29;0.70;99.90
22153;DHT22;11242;50.536;12.688;2022-11-20T14:43:58;0.70;99.90
22153;DHT22;11242;50.536;12.688;2022-11-20T14:46:25;0.70;99.90
22153;DHT22;11242;50.536;12.688;2022-11-20T14:48:54;0.70;99.90
22153;DHT22;11242;50.536;12.688;2022-11-20T14:53:55;0.60;99.90
22153;DHT22;11242;50.536;12.688;2022-11-20T14:56:22;0.60;99.90
22153;DHT22;11242;50.536;12.688;2022-11-20T14:58:57;0.60;99.90
22153;DHT22;11242;50.536;12.688;2022-11-20T15:01:30;0.60;99.90
22153;DHT22;11242;50.536;12.688;2022-11-20T15:04:08;0.60;99.90
22153;DHT22;11242;50.536;12.688;2022-11-20T15:06:35;0.50;99.90
22153;DHT22;11242;50.536;12.688;2022-11-20T15:09:03;0.50;99.90
22153;DHT22;11242;50.536;12.688;2022-11-20T15:11:32;0.50;99.90
22153;DHT22;11242;50.536;12.688;2022-11-20T15:14:03;0.50;99.90
22153;DHT22;11242;50.536;12.688;2022-11-20T15:16:29;0.50;99.90
22153;DHT22;11242;50.536;12.688;2022-11-20T15:18:55;0.50;99.90
22153;DHT22;11242;50.536;12.688;2022-11-20T15:21:21;0.50;99.90
22153;DHT22;11242;50.536;12.688;2022-11-20T15:23:46;0.50;99.90
22153;DHT22;11242;50.536;12.688;2022-11-20T15:26:14;0.50;99.90
22153;DHT22;11242;50.536;12.688;2022-11-20T15:28:42;0.40;99.90
22153;DHT22;11242;50.536;12.688;2022-11-20T15:31:12;0.40;99.90
22153;DHT22;11242;50.536;12.688;2022-11-20T15:33:38;0.40;99.90
22153;DHT22;11242;50.536;12.688;2022-11-20T15:36:04;0.40;99.90
22153;DHT22;11242;50.536;12.688;2022-11-20T15:38:30;0.40;99.90
22153;DHT22;11242;50.536;12.688;2022-11-20T15:40:56;0.30;99.90
22153;DHT22;11242;50.536;12.688;2022-11-20T15:43:21;0.30;99.90
22153;DHT22;11242;50.536;12.688;2022-11-20T15:46:09;0.30;99.90
22153;DHT22;11242;50.536;12.688;2022-11-20T15:48:37;0.30;99.90
22153;DHT22;11242;50.536;12.688;2022-11-20T15:51:06;0.30;99.90
22153;DHT22;11242;50.536;12.688;2022-11-20T15:53:33;0.30;99.90
22153;DHT22;11242;50.536;12.688;2022-11-20T15:55:58;0.30;99.90
22153;DHT22;11242;50.536;12.688;2022-11-20T15:58:24;0.30;99.90
22153;DHT22;11242;50.536;12.688;2022-11-20T16:00:50;0.20;99.90
22153;DHT22;11242;50.536;12.688;2022-11-20T16:03:16;0.20;99.90
22153;DHT22;11242;50.536;12.688;2022-11-20T16:05:42;0.10;99.90
22153;DHT22;11242;50.536;12.688;2022-11-20T16:08:08;0.10;99.90
22153;DHT22;11242;50.536;12.688;2022-11-20T16:10:34;0.10;99.90
22153;DHT22;11242;50.536;12.688;2022-11-20T16:13:00;0.10;99.90
22153;DHT22;11242;50.536;12.688;2022-11-20T16:15:55;0.00;99.90
22153;DHT22;11242;50.536;12.688;2022-11-20T16:18:22;0.00;99.90
22153;DHT22;11242;50.536;12.688;2022-11-20T16:20:50;0.00;99.90
22153;DHT22;11242;50.536;12.688;2022-11-20T16:23:16;0.00;99.90
22153;DHT22;11242;50.536;12.688;2022-11-20T16:25:43;0.10;99.90
22153;DHT22;11242;50.536;12.688;2022-11-20T16:28:09;0.00;99.90
22153;DHT22;11242;50.536;12.688;2022-11-20T16:30:34;0.00;99.90
22153;DHT22;11242;50.536;12.688;2022-11-20T16:33:02;0.00;99.90
22153;DHT22;11242;50.536;12.688;2022-11-20T16:35:31;0.00;99.90
22153;DHT22;11242;50.536;12.688;2022-11-20T16:37:57;0.00;99.90
22153;DHT22;11242;50.536;12.688;2022-11-20T16:40:23;-0.10;99.90
22153;DHT22;11242;50.536;12.688;2022-11-20T16:42:50;-0.10;99.90
22153;DHT22;11242;50.536;12.688;2022-11-20T16:45:15;-0.20;99.90
22153;DHT22;11242;50.536;12.688;2022-11-20T16:47:41;-0.20;99.90
22153;DHT22;11242;50.536;12.688;2022-11-20T16:50:07;-0.20;99.90
22153;DHT22;11242;50.536;12.688;2022-11-20T16:52:33;-0.20;99.90
22153;DHT22;11242;50.536;12.688;2022-11-20T16:54:59;-0.20;99.90
22153;DHT22;11242;50.536;12.688;2022-11-20T16:57:28;-0.20;99.90
22153;DHT22;11242;50.536;12.688;2022-11-20T16:59:54;-0.30;99.90
22153;DHT22;11242;50.536;12.688;2022-11-20T17:02:20;-0.40;99.90
22153;DHT22;11242;50.536;12.688;2022-11-20T17:04:46;-0.50;99.90
22153;DHT22;11242;50.536;12.688;2022-11-20T17:07:11;-0.60;99.90
22153;DHT22;11242;50.536;12.688;2022-11-20T17:09:37;-0.60;99.90